Time;durP1;ratioP1;P1;durP2;ratioP2;P2;SDS_P1;SDS_P2;PMS_P1;PMS_P2;Temp;Humidity;BMP_temperature;BMP_pressure;BME280_temperature;BME280_humidity;BME280_pressure;Samples;Min_cycle;Max_cycle;Signal;HPM_P1;HPM_P2
2022/08/31 00:04:29;;;;;;;1.07;0.30;;;;;;;19.45;64.53;98806.13;6248073;23;20027;-75
2022/08/31 00:06:55;;;;;;;;;;;;;;;19.36;64.79;98786.94;6238631;22;20024;-74
2022/08/31 00:09:21;;;;;;;0.30;0.30;;;;;;;19.30;65.19;98796.66;6237175;23;20295;-69
2022/08/31 00:11:47;;;;;;;0.20;0.20;;;;;;;19.24;64.84;98787.81;6244470;22;20074;-69
2022/08/31 00:14:13;;;;;;;0.20;0.20;;;;;;;19.19;65.24;98788.09;6243293;22;20024;-68
2022/08/31 00:16:44;;;;;;;0.20;0.20;;;;;;;19.19;65.03;98787.28;6275389;22;20019;-67
2022/08/31 00:19:10;;;;;;;0.20;0.20;;;;;;;19.16;65.47;98801.84;6240880;22;20427;-68
2022/08/31 00:21:38;;;;;;;0.20;0.20;;;;;;;19.13;65.81;98795.06;6280167;22;20019;-69
2022/08/31 00:24:04;;;;;;;0.30;0.30;;;;;;;19.07;65.92;98800.06;6248256;22;20024;-69
2022/08/31 00:26:30;;;;;;;0.20;0.20;;;;;;;19.04;65.74;98799.97;6276948;22;20020;-69
2022/08/31 00:28:56;;;;;;;0.20;0.20;;;;;;;19.02;66.04;98794.78;6276445;22;20258;-70
2022/08/31 00:31:22;;;;;;;0.60;0.30;;;;;;;18.96;65.89;98785.88;6211982;22;20098;-70
2022/08/31 00:33:51;;;;;;;0.20;0.20;;;;;;;18.97;66.24;98795.00;6265334;22;20099;-74
2022/08/31 00:36:20;;;;;;;0.88;0.30;;;;;;;18.97;66.48;98798.59;6237175;22;20031;-73
2022/08/31 00:38:47;;;;;;;0.30;0.30;;;;;;;18.98;66.41;98794.66;6239223;22;20024;-75
2022/08/31 00:41:15;;;;;;;0.20;0.20;;;;;;;18.98;66.26;98802.97;6274444;22;20016;-76
2022/08/31 00:43:44;;;;;;;;;;;;;;;18.94;66.56;98790.19;6246628;22;20069;-74
2022/08/31 00:46:12;;;;;;;0.20;0.20;;;;;;;18.92;66.11;98801.63;6264228;22;19919;-70
2022/08/31 00:48:42;;;;;;;0.20;0.20;;;;;;;18.86;66.26;98797.50;6275004;22;20455;-69
2022/08/31 00:51:11;;;;;;;0.20;0.20;;;;;;;18.83;66.64;98796.25;6276878;22;20027;-70
2022/08/31 00:53:37;;;;;;;0.28;0.28;;;;;;;18.80;66.68;98793.38;6249621;22;20494;-69
2022/08/31 00:56:04;;;;;;;0.20;0.20;;;;;;;18.76;66.64;98786.94;6237046;22;20024;-69
2022/08/31 00:58:30;;;;;;;0.20;0.20;;;;;;;18.72;66.89;98797.91;6247248;22;20031;-69
2022/08/31 01:00:57;;;;;;;0.22;0.22;;;;;;;18.69;67.09;98796.69;6275797;22;20015;-70
2022/08/31 01:03:23;;;;;;;;;;;;;;;18.69;67.02;98793.91;6212775;22;20026;-70
2022/08/31 01:05:50;;;;;;;0.20;0.20;;;;;;;18.66;67.24;98789.09;6263147;22;19919;-69
2022/08/31 01:08:18;;;;;;;0.20;0.20;;;;;;;18.63;67.18;98789.78;6267038;22;20405;-74
2022/08/31 01:10:45;;;;;;;0.28;0.28;;;;;;;18.62;67.59;98792.91;6237140;22;20022;-74
2022/08/31 01:13:14;;;;;;;0.28;0.28;;;;;;;18.61;67.74;98788.53;6276104;22;20028;-75
2022/08/31 01:15:47;;;;;;;0.25;0.25;;;;;;;18.64;67.93;98783.06;6263331;22;20081;-74
2022/08/31 01:18:15;;;;;;;0.20;0.20;;;;;;;18.67;68.06;98787.94;6269622;22;20043;-74
2022/08/31 01:20:50;;;;;;;0.20;0.20;;;;;;;18.60;67.86;98784.16;6277636;22;20217;-74
2022/08/31 01:23:23;;;;;;;0.20;0.20;;;;;;;18.54;67.85;98775.31;6264500;22;20053;-74
2022/08/31 01:25:51;;;;;;;0.20;0.20;;;;;;;18.51;68.54;98776.03;6236913;22;20020;-74
2022/08/31 01:28:17;;;;;;;;;;;;;;;18.46;68.62;98779.03;6276740;22;20069;-75
2022/08/31 01:30:55;;;;;;;0.10;0.10;;;;;;;18.46;68.60;98782.59;6249035;22;19919;-75
2022/08/31 01:33:21;;;;;;;0.20;0.20;;;;;;;18.45;69.43;98780.19;6212044;22;20019;-75
2022/08/31 01:35:47;;;;;;;0.20;0.20;;;;;;;18.40;69.61;98770.16;6247589;22;20031;-76
2022/08/31 01:38:13;;;;;;;0.20;0.20;;;;;;;18.38;69.58;98778.00;6262657;22;20023;-75
2022/08/31 01:40:50;;;;;;;0.20;0.20;;;;;;;18.35;69.51;98776.78;6185018;22;20475;-75
2022/08/31 01:43:16;;;;;;;0.20;0.20;;;;;;;18.36;69.59;98775.63;6270419;22;20020;-75
2022/08/31 01:45:43;;;;;;;0.20;0.20;;;;;;;18.29;70.10;98772.63;6221528;22;20031;-75
2022/08/31 01:48:09;;;;;;;0.20;0.20;;;;;;;18.26;70.57;98768.63;6211413;22;20066;-75
2022/08/31 01:50:35;;;;;;;0.28;0.28;;;;;;;18.23;70.87;98768.53;6236563;22;20024;-74
2022/08/31 01:53:01;;;;;;;0.20;0.20;;;;;;;18.07;71.34;98746.31;6248169;22;20019;-75
2022/08/31 01:55:28;;;;;;;0.20;0.20;;;;;;;18.07;71.46;98758.19;6247804;22;20157;-74
2022/08/31 01:57:57;;;;;;;0.10;0.10;;;;;;;18.02;72.25;98763.97;6239194;22;20019;-74
2022/08/31 02:00:24;;;;;;;0.13;0.13;;;;;;;17.97;72.17;98761.41;6275620;22;20023;-75
2022/08/31 02:02:50;;;;;;;0.10;0.10;;;;;;;17.93;72.75;98757.75;6277750;22;20133;-75
2022/08/31 02:05:16;;;;;;;0.30;0.22;;;;;;;17.88;73.19;98766.28;6237016;22;20026;-74
2022/08/31 02:07:44;;;;;;;0.20;0.20;;;;;;;17.81;73.35;98764.91;6238044;22;20019;-75
2022/08/31 02:10:10;;;;;;;0.20;0.20;;;;;;;17.82;73.26;98766.53;6250538;22;20019;-74
2022/08/31 02:12:37;;;;;;;0.20;0.20;;;;;;;17.81;73.64;98762.16;6249049;22;20034;-73
2022/08/31 02:15:08;;;;;;;0.10;0.10;;;;;;;17.75;73.71;98758.03;6235954;22;20027;-74
2022/08/31 02:17:34;;;;;;;0.20;0.20;;;;;;;17.68;74.16;98764.13;6244460;22;20024;-74
2022/08/31 02:20:03;;;;;;;0.20;0.20;;;;;;;17.63;74.38;98753.31;6234045;23;20108;-75
2022/08/31 02:22:30;;;;;;;0.20;0.20;;;;;;;17.61;74.27;98760.34;6207690;23;20082;-74
2022/08/31 02:24:56;;;;;;;0.20;0.20;;;;;;;17.58;74.66;98754.38;6220968;23;20028;-73
2022/08/31 02:27:25;;;;;;;0.20;0.20;;;;;;;17.57;74.64;98758.28;6246189;22;20024;-74
2022/08/31 02:29:51;;;;;;;0.20;0.20;;;;;;;17.52;75.28;98757.72;6206111;23;20024;-74
2022/08/31 02:32:20;;;;;;;0.30;0.30;;;;;;;17.46;75.53;98757.13;6244102;22;20058;-73
2022/08/31 02:34:46;;;;;;;0.28;0.20;;;;;;;17.43;75.72;98750.34;6244534;23;20020;-74
2022/08/31 02:37:12;;;;;;;0.20;0.20;;;;;;;17.39;75.86;98748.59;6234614;22;20093;-75
2022/08/31 02:39:38;;;;;;;0.20;0.20;;;;;;;17.40;75.54;98747.44;6236997;23;20391;-74
2022/08/31 02:42:05;;;;;;;0.20;0.20;;;;;;;17.35;75.98;98740.22;6242042;22;20020;-74
2022/08/31 02:44:31;;;;;;;0.20;0.20;;;;;;;17.31;76.27;98741.25;6234336;22;20373;-74
2022/08/31 02:46:57;;;;;;;0.20;0.20;;;;;;;17.29;76.33;98736.06;6235544;22;20035;-73
2022/08/31 02:50:02;;;;;;;0.10;0.10;;;;;;;17.26;75.94;98742.28;6173707;23;20140;-74
2022/08/31 02:52:29;;;;;;;0.20;0.20;;;;;;;17.25;75.90;98730.44;6213135;23;20020;-74
2022/08/31 02:54:55;;;;;;;0.20;0.20;;;;;;;17.28;76.04;98739.97;6230930;23;20020;-74
2022/08/31 02:57:21;;;;;;;0.28;0.28;;;;;;;17.23;76.09;98731.94;6242368;22;20097;-74
2022/08/31 02:59:48;;;;;;;0.30;0.20;;;;;;;17.29;76.05;98744.34;6241914;23;20024;-74
2022/08/31 03:02:14;;;;;;;0.30;0.30;;;;;;;17.31;75.63;98742.03;6242370;22;20352;-74
2022/08/31 03:04:41;;;;;;;0.28;0.28;;;;;;;17.34;75.22;98746.91;6242138;23;20024;-74
2022/08/31 03:07:08;;;;;;;0.32;0.30;;;;;;;17.37;74.79;98745.38;6246303;22;20027;-74
2022/08/31 03:09:35;;;;;;;0.52;0.30;;;;;;;17.38;74.88;98750.56;6242278;23;20024;-74
2022/08/31 03:12:01;;;;;;;0.20;0.20;;;;;;;17.40;74.25;98748.28;6220269;23;20024;-74
2022/08/31 03:14:30;;;;;;;0.30;0.30;;;;;;;17.41;74.64;98747.13;6236652;22;20028;-75
2022/08/31 03:16:56;;;;;;;0.20;0.20;;;;;;;17.44;74.35;98749.19;6208330;23;20024;-75
2022/08/31 03:19:22;;;;;;;0.30;0.30;;;;;;;17.46;74.00;98739.75;6243628;23;20062;-75
2022/08/31 03:21:48;;;;;;;0.20;0.20;;;;;;;17.48;73.96;98748.47;6246704;22;20451;-74
2022/08/31 03:24:20;;;;;;;0.20;0.20;;;;;;;17.51;73.56;98740.31;6232711;23;20055;-73
2022/08/31 03:26:46;;;;;;;0.20;0.20;;;;;;;17.60;73.18;98747.69;6231524;22;20043;-74
2022/08/31 03:29:13;;;;;;;0.30;0.30;;;;;;;17.63;72.62;98741.47;6234036;22;20419;-74
2022/08/31 03:31:51;;;;;;;0.30;0.30;;;;;;;17.61;72.94;98736.25;6232852;22;20019;-75
2022/08/31 03:34:17;;;;;;;0.20;0.20;;;;;;;17.62;72.75;98753.66;6218625;23;20016;-74
2022/08/31 03:36:43;;;;;;;0.30;0.30;;;;;;;17.66;72.82;98738.81;6237114;22;20030;-75
2022/08/31 03:39:09;;;;;;;0.30;0.30;;;;;;;17.69;72.76;98732.56;6234250;22;20668;-74
2022/08/31 03:41:37;;;;;;;0.30;0.30;;;;;;;17.75;72.54;98737.84;6236165;22;20146;-75
2022/08/31 03:44:04;;;;;;;0.30;0.30;;;;;;;17.77;72.62;98735.53;6209221;23;20020;-74
2022/08/31 03:46:32;;;;;;;0.20;0.20;;;;;;;17.85;71.90;98742.91;6243344;22;20028;-74
2022/08/31 03:49:00;;;;;;;0.20;0.20;;;;;;;17.86;71.76;98734.25;6234681;23;20044;-74
2022/08/31 03:51:27;;;;;;;0.38;0.30;;;;;;;17.82;71.48;98735.31;6232881;22;20031;-75
2022/08/31 03:53:53;;;;;;;0.28;0.28;;;;;;;17.74;71.74;98716.91;6232729;23;20020;-74
2022/08/31 03:56:20;;;;;;;0.35;0.35;;;;;;;17.84;71.75;98730.25;6243611;22;20482;-74
2022/08/31 03:58:50;;;;;;;0.20;0.20;;;;;;;17.88;71.43;98736.66;6233953;23;20022;-75
2022/08/31 04:01:42;;;;;;;0.30;0.30;;;;;;;17.96;71.12;98732.97;6199403;22;20048;-75
2022/08/31 04:04:27;;;;;;;0.25;0.25;;;;;;;17.97;71.13;98723.53;6233983;23;20024;-76
2022/08/31 04:07:25;;;;;;;0.30;0.30;;;;;;;17.97;71.01;98731.81;6199989;22;20103;-74
2022/08/31 04:10:11;;;;;;;0.35;0.30;;;;;;;17.96;70.53;98718.31;6232968;23;20107;-68
2022/08/31 04:12:57;;;;;;;0.30;0.30;;;;;;;18.03;70.97;98723.28;6195745;22;20351;-70
2022/08/31 04:15:50;;;;;;;0.30;0.30;;;;;;;18.08;70.75;98723.03;6231295;22;20031;-74
2022/08/31 04:18:35;;;;;;;0.22;0.22;;;;;;;18.08;70.59;98723.84;6275249;22;20047;-75
2022/08/31 04:21:02;;;;;;;0.30;0.30;;;;;;;18.12;70.77;98718.44;6237765;22;20019;-75
2022/08/31 04:23:28;;;;;;;0.30;0.30;;;;;;;18.16;70.09;98722.09;6214678;22;20047;-75
2022/08/31 04:25:57;;;;;;;0.30;0.30;;;;;;;18.17;70.33;98711.81;6247034;22;20050;-75
2022/08/31 04:28:23;;;;;;;0.38;0.35;;;;;;;18.22;69.97;98715.13;6241292;22;20055;-76
2022/08/31 04:30:50;;;;;;;0.40;0.40;;;;;;;18.26;69.88;98720.78;6240786;22;20163;-75
2022/08/31 04:33:17;;;;;;;0.30;0.30;;;;;;;18.30;69.04;98724.44;6236915;22;20269;-76
2022/08/31 04:35:43;;;;;;;0.30;0.30;;;;;;;18.24;69.47;98712.81;6247196;22;20346;-75
2022/08/31 04:38:09;;;;;;;0.30;0.30;;;;;;;18.35;69.27;98720.63;6213032;22;20053;-75
2022/08/31 04:40:36;;;;;;;0.30;0.30;;;;;;;18.39;69.14;98721.50;6266323;22;20024;-74
2022/08/31 04:43:02;;;;;;;0.22;0.22;;;;;;;18.48;68.88;98730.47;6237044;22;20020;-75
2022/08/31 04:45:28;;;;;;;0.30;0.30;;;;;;;18.53;68.92;98732.19;6245668;22;20034;-75
2022/08/31 04:47:56;;;;;;;0.30;0.30;;;;;;;18.60;68.56;98729.59;6250276;22;20481;-75
2022/08/31 04:50:22;;;;;;;0.40;0.40;;;;;;;18.79;68.08;98726.13;6248951;22;20023;-74
2022/08/31 04:53:07;;;;;;;0.30;0.30;;;;;;;19.12;66.33;98726.94;6277762;22;20029;-74
2022/08/31 04:55:38;;;;;;;0.20;0.20;;;;;;;19.07;65.51;98721.69;6209871;22;20047;-75
2022/08/31 04:58:05;;;;;;;0.30;0.30;;;;;;;18.97;65.00;98725.78;6213047;22;20047;-75
2022/08/31 05:00:31;;;;;;;0.30;0.30;;;;;;;18.88;65.67;98731.50;6248802;22;20050;-74
2022/08/31 05:02:58;;;;;;;0.30;0.30;;;;;;;18.89;66.24;98724.78;6264351;22;20023;-74
2022/08/31 05:05:24;;;;;;;0.30;0.30;;;;;;;18.91;65.22;98730.00;6264055;22;20031;-75
2022/08/31 05:07:51;;;;;;;0.30;0.30;;;;;;;18.91;65.63;98733.53;6235935;22;20019;-75
2022/08/31 05:10:17;;;;;;;0.30;0.30;;;;;;;18.92;65.14;98729.63;6223233;22;20024;-74
2022/08/31 05:12:43;;;;;;;0.30;0.30;;;;;;;19.01;65.24;98726.69;6238823;22;20034;-74
2022/08/31 05:15:11;;;;;;;0.30;0.30;;;;;;;19.06;64.91;98728.41;6262208;22;20103;-74
2022/08/31 05:17:37;;;;;;;0.30;0.30;;;;;;;19.07;65.36;98735.53;6274645;22;20023;-74
2022/08/31 05:20:06;;;;;;;1.17;0.30;;;;;;;19.08;64.65;98715.81;6247689;22;20016;-75
2022/08/31 05:22:32;;;;;;;0.30;0.30;;;;;;;19.05;64.98;98733.16;6238219;22;20034;-75
2022/08/31 05:24:59;;;;;;;0.30;0.30;;;;;;;18.94;65.27;98732.81;6250119;22;20023;-74
2022/08/31 05:27:25;;;;;;;0.30;0.30;;;;;;;18.82;65.73;98742.03;6275909;22;20027;-75
2022/08/31 05:29:51;;;;;;;0.30;0.30;;;;;;;18.77;66.08;98733.19;6265787;22;20091;-69
2022/08/31 05:32:44;;;;;;;0.20;0.20;;;;;;;18.79;66.37;98737.22;6235352;22;20019;-69
2022/08/31 05:35:13;;;;;;;0.30;0.30;;;;;;;18.71;66.60;98732.63;6249218;22;20095;-69
2022/08/31 05:37:41;;;;;;;0.30;0.30;;;;;;;18.71;66.95;98727.91;6213589;22;20301;-69
2022/08/31 05:40:09;;;;;;;0.32;0.32;;;;;;;18.70;66.73;98737.38;6212619;22;20043;-70
2022/08/31 05:42:36;;;;;;;0.30;0.30;;;;;;;18.88;66.64;98734.25;6187250;22;20085;-70
2022/08/31 05:45:03;;;;;;;0.38;0.38;;;;;;;19.05;65.64;98732.31;6267579;22;20094;-70
2022/08/31 05:47:30;;;;;;;0.43;0.40;;;;;;;19.11;65.43;98731.69;6214236;22;20023;-70
2022/08/31 05:49:57;;;;;;;0.45;0.40;;;;;;;19.11;65.54;98736.41;6248184;22;20020;-69
2022/08/31 05:52:24;;;;;;;0.30;0.30;;;;;;;19.11;65.03;98740.00;6210853;22;20352;-69
2022/08/31 05:54:50;;;;;;;0.30;0.30;;;;;;;19.02;65.74;98742.16;6247026;22;20019;-70
2022/08/31 05:57:16;;;;;;;0.30;0.30;;;;;;;19.06;65.42;98750.56;6248733;22;20408;-69
2022/08/31 05:59:43;;;;;;;0.25;0.25;;;;;;;18.97;65.50;98751.53;6247861;22;20028;-69
2022/08/31 06:02:10;;;;;;;0.20;0.20;;;;;;;18.69;66.41;98740.50;6242953;22;20207;-69
2022/08/31 06:04:37;;;;;;;0.73;0.40;;;;;;;18.49;67.11;98761.69;6273984;22;20450;-74
2022/08/31 06:07:04;;;;;;;0.30;0.30;;;;;;;18.35;67.83;98760.19;6211050;22;20460;-76
2022/08/31 06:09:43;;;;;;;0.47;0.32;;;;;;;18.35;67.92;98751.06;6212765;22;20015;-75
2022/08/31 06:12:16;;;;;;;0.40;0.40;;;;;;;18.37;68.07;98760.63;6236966;22;20027;-75
2022/08/31 06:14:42;;;;;;;0.45;0.40;;;;;;;18.45;67.23;98764.41;6236038;22;20020;-74
2022/08/31 06:17:08;;;;;;;0.40;0.40;;;;;;;18.33;67.36;98756.13;6241864;22;20043;-76
2022/08/31 06:19:36;;;;;;;0.40;0.40;;;;;;;18.09;68.37;98755.06;6236105;22;20020;-75
2022/08/31 06:22:02;;;;;;;0.20;0.20;;;;;;;17.96;68.20;98760.63;6237211;22;20024;-74
2022/08/31 06:24:30;;;;;;;0.20;0.20;;;;;;;17.96;68.17;98768.91;6207348;22;20098;-74
2022/08/31 06:26:58;;;;;;;0.30;0.30;;;;;;;17.96;67.95;98777.22;6233329;22;20055;-74
2022/08/31 06:29:30;;;;;;;0.32;0.30;;;;;;;18.06;68.13;98786.19;6206975;22;20030;-74
2022/08/31 06:31:59;;;;;;;0.30;0.30;;;;;;;18.05;68.08;98768.81;6218270;22;20394;-68
2022/08/31 06:34:27;;;;;;;0.52;0.30;;;;;;;18.09;67.06;98771.66;6236218;22;20047;-70
2022/08/31 06:37:07;;;;;;;0.30;0.30;;;;;;;18.06;66.94;98784.25;6236863;22;20463;-71
2022/08/31 06:39:33;;;;;;;0.43;0.40;;;;;;;18.14;67.02;98788.03;6245713;22;20024;-74
2022/08/31 06:42:19;;;;;;;0.32;0.30;;;;;;;18.25;65.58;98782.81;6233434;22;20054;-75
2022/08/31 06:44:57;;;;;;;0.30;0.30;;;;;;;18.26;65.47;98789.94;6264412;22;20023;-75
2022/08/31 06:47:50;;;;;;;0.30;0.30;;;;;;;18.45;64.73;98789.28;6212418;22;20103;-75
2022/08/31 06:50:18;;;;;;;0.30;0.30;;;;;;;18.54;64.68;98778.06;6248140;22;20024;-74
2022/08/31 06:52:47;;;;;;;1.05;0.40;;;;;;;18.60;63.84;98787.72;6239844;22;20436;-75
2022/08/31 06:55:21;;;;;;;0.30;0.30;;;;;;;18.46;63.70;98779.84;6235272;22;20700;-75
2022/08/31 06:57:52;;;;;;;0.40;0.30;;;;;;;18.33;63.19;98776.28;6270561;22;20032;-74
2022/08/31 07:00:41;;;;;;;0.30;0.30;;;;;;;18.15;64.33;98781.34;6204732;22;20035;-74
2022/08/31 07:03:44;;;;;;;0.30;0.30;;;;;;;18.28;64.55;98788.44;6147947;23;20025;-75
2022/08/31 07:06:15;;;;;;;0.30;0.30;;;;;;;18.44;63.84;98768.31;6212503;22;20024;-74
2022/08/31 07:08:43;;;;;;;0.30;0.30;;;;;;;18.56;63.23;98770.22;6243300;22;20450;-74
2022/08/31 07:11:14;;;;;;;0.30;0.30;;;;;;;18.78;63.36;98771.59;6227789;22;20046;-75
2022/08/31 07:13:42;;;;;;;0.30;0.30;;;;;;;18.93;61.52;98808.75;6264803;22;20023;-75
2022/08/31 07:16:11;;;;;;;0.30;0.30;;;;;;;18.92;62.01;98789.75;6210898;22;20027;-75
2022/08/31 07:18:39;;;;;;;0.40;0.30;;;;;;;18.96;62.30;98785.09;6238083;22;20766;-74
2022/08/31 07:21:12;;;;;;;0.30;0.30;;;;;;;18.95;61.72;98787.03;6236089;22;20549;-75
2022/08/31 07:23:39;;;;;;;0.43;0.40;;;;;;;19.00;61.33;98799.88;6276947;22;20028;-74
2022/08/31 07:26:12;;;;;;;0.30;0.30;;;;;;;19.12;61.28;98777.63;6261235;22;20363;-69
2022/08/31 07:28:43;;;;;;;0.40;0.40;;;;;;;19.23;61.60;98790.97;6271659;22;20030;-74
2022/08/31 07:31:14;;;;;;;0.38;0.38;;;;;;;19.74;59.65;98808.78;6213588;22;20077;-75
2022/08/31 07:33:41;;;;;;;0.30;0.30;;;;;;;19.87;58.66;98784.50;6216279;22;20358;-75
2022/08/31 07:36:10;;;;;;;0.33;0.33;;;;;;;19.91;58.77;98790.94;6205228;22;20485;-74
2022/08/31 07:44:33;;;;;;;0.30;0.30;;;;;;;19.52;59.50;98803.53;6229790;22;20019;-70
2022/08/31 07:47:02;;;;;;;0.30;0.30;;;;;;;19.35;59.60;98776.19;6242043;22;20016;-70
2022/08/31 07:49:29;;;;;;;0.38;0.38;;;;;;;19.34;59.93;98777.34;6244270;22;20030;-70
2022/08/31 07:52:27;;;;;;;0.30;0.30;;;;;;;19.19;59.97;98793.63;6214340;22;20019;-74
2022/08/31 07:55:11;;;;;;;0.30;0.30;;;;;;;18.94;60.96;98798.50;6238783;22;20024;-75
2022/08/31 07:57:59;;;;;;;0.47;0.30;;;;;;;18.75;61.24;98794.47;6241025;22;20023;-75
2022/08/31 08:00:27;;;;;;;0.30;0.30;;;;;;;18.69;61.99;98791.13;6234203;22;20019;-75
2022/08/31 08:02:55;;;;;;;0.28;0.28;;;;;;;18.71;62.19;98774.97;6272406;22;20073;-75
2022/08/31 08:05:31;;;;;;;0.40;0.40;;;;;;;18.69;62.20;98793.09;6233926;22;20023;-75
2022/08/31 08:08:21;;;;;;;0.30;0.30;;;;;;;18.52;62.87;98772.09;6262729;22;20016;-75
2022/08/31 08:10:56;;;;;;;0.30;0.30;;;;;;;18.62;62.82;98777.09;6236197;22;20485;-76
2022/08/31 08:13:42;;;;;;;0.28;0.28;;;;;;;18.64;62.63;98785.84;6239207;22;20084;-75
2022/08/31 08:16:19;;;;;;;0.30;0.30;;;;;;;18.59;63.43;98782.56;6207936;22;20463;-74
2022/08/31 08:19:10;;;;;;;0.30;0.30;;;;;;;18.54;62.98;98787.16;6253086;22;20081;-75
2022/08/31 08:21:36;;;;;;;0.32;0.30;;;;;;;18.53;62.87;98784.75;6246260;22;20023;-75
2022/08/31 08:24:05;;;;;;;0.60;0.30;;;;;;;18.54;62.70;98789.94;6231460;22;20834;-74
2022/08/31 08:26:51;;;;;;;0.30;0.30;;;;;;;18.62;62.72;98781.84;6229890;22;20027;-74
2022/08/31 08:29:26;;;;;;;0.40;0.40;;;;;;;18.85;62.04;98799.47;6240968;22;20086;-75
2022/08/31 08:31:53;;;;;;;0.32;0.32;;;;;;;18.93;61.31;98794.91;6182760;22;20024;-75
2022/08/31 08:34:22;;;;;;;0.40;0.40;;;;;;;19.05;60.75;98790.50;6234707;22;20081;-74
2022/08/31 08:36:49;;;;;;;0.38;0.30;;;;;;;19.08;60.27;98792.53;6240825;22;20521;-75
2022/08/31 08:39:17;;;;;;;0.32;0.30;;;;;;;18.98;60.28;98791.91;6237383;22;20024;-75
2022/08/31 08:41:58;;;;;;;0.30;0.30;;;;;;;18.82;60.94;98793.84;6231660;22;20429;-75
2022/08/31 08:44:29;;;;;;;0.30;0.30;;;;;;;18.89;61.27;98790.44;6209942;22;20024;-75
2022/08/31 08:46:58;;;;;;;0.63;0.45;;;;;;;19.07;60.54;98791.75;6245423;22;20529;-75
2022/08/31 08:49:48;;;;;;;0.40;0.30;;;;;;;19.45;59.47;98794.25;6231459;22;20416;-75
2022/08/31 08:52:27;;;;;;;0.40;0.40;;;;;;;19.53;58.42;98791.28;6221377;22;20110;-75
2022/08/31 08:54:56;;;;;;;0.38;0.30;;;;;;;19.53;58.32;98799.59;6238906;22;20035;-75
2022/08/31 08:57:25;;;;;;;0.30;0.30;;;;;;;19.41;58.50;98785.81;6241145;22;20240;-75
2022/08/31 08:59:55;;;;;;;0.52;0.40;;;;;;;19.50;58.42;98783.69;6235744;22;20019;-75
2022/08/31 09:02:27;;;;;;;0.35;0.32;;;;;;;19.67;58.12;98820.50;6244011;22;20090;-75
2022/08/31 09:05:20;;;;;;;0.40;0.40;;;;;;;19.61;57.77;98791.47;6267207;22;20024;-75
2022/08/31 09:08:10;;;;;;;0.50;0.50;;;;;;;19.72;58.03;98784.16;6212807;22;20051;-75
2022/08/31 09:10:42;;;;;;;0.50;0.50;;;;;;;20.02;57.22;98796.75;6223008;22;20054;-75
2022/08/31 09:13:18;;;;;;;0.50;0.50;;;;;;;20.45;55.85;98797.66;6246988;22;20103;-75
2022/08/31 09:16:03;;;;;;;0.50;0.50;;;;;;;21.13;54.06;98799.31;6243410;22;20073;-75
2022/08/31 09:18:51;;;;;;;0.60;0.60;;;;;;;21.32;52.89;98801.22;6205314;23;20329;-75
2022/08/31 09:21:24;;;;;;;0.50;0.50;;;;;;;22.50;49.69;98797.72;6203936;23;20028;-76
2022/08/31 09:24:02;;;;;;;1.02;0.90;;;;;;;23.27;47.55;98813.25;6231713;22;20392;-75
2022/08/31 09:27:03;;;;;;;0.65;0.50;;;;;;;23.39;46.48;98817.72;6199801;23;20086;-76
2022/08/31 09:29:42;;;;;;;0.60;0.60;;;;;;;22.86;48.01;98798.09;6239597;22;20016;-74
2022/08/31 09:32:15;;;;;;;0.55;0.40;;;;;;;22.45;49.03;98801.59;6228264;22;20050;-74
2022/08/31 09:34:41;;;;;;;0.50;0.50;;;;;;;21.87;50.31;98792.53;6238988;22;20589;-75
2022/08/31 09:37:18;;;;;;;0.32;0.30;;;;;;;22.23;49.64;98806.94;6233109;22;20078;-75
2022/08/31 09:39:51;;;;;;;0.30;0.30;;;;;;;21.57;51.30;98801.59;6220293;23;20417;-75
2022/08/31 09:42:28;;;;;;;0.60;0.40;;;;;;;21.09;52.87;98802.00;6225002;22;20020;-74
2022/08/31 09:44:57;;;;;;;0.30;0.30;;;;;;;20.80;53.84;98809.78;6223319;23;20024;-75
2022/08/31 09:47:50;;;;;;;0.30;0.30;;;;;;;20.38;55.20;98806.63;6209507;23;20035;-74
2022/08/31 09:50:31;;;;;;;0.30;0.30;;;;;;;20.03;57.31;98837.19;6226226;22;20110;-75
2022/08/31 09:56:14;;;;;;;0.40;0.40;;;;;;;20.33;57.45;98826.34;6227262;22;20271;-76
2022/08/31 09:58:45;;;;;;;0.75;0.63;;;;;;;20.83;56.13;98825.75;6234786;22;20637;-70
2022/08/31 10:01:18;;;;;;;0.50;0.50;;;;;;;21.50;54.55;98818.16;6226609;22;20020;-71
2022/08/31 10:03:46;;;;;;;0.63;0.60;;;;;;;21.88;53.74;98829.50;6237559;22;20027;-70
2022/08/31 10:06:45;;;;;;;0.52;0.52;;;;;;;22.17;52.26;98832.69;6236174;22;20023;-69
2022/08/31 10:09:27;;;;;;;1.00;0.70;;;;;;;22.76;50.94;98827.47;6184770;22;20024;-71
2022/08/31 10:11:58;;;;;;;0.70;0.70;;;;;;;23.74;47.61;98824.78;6224003;22;20085;-71
2022/08/31 10:14:30;;;;;;;0.50;0.50;;;;;;;23.59;47.26;98823.84;6227305;22;20124;-71
2022/08/31 10:17:03;;;;;;;0.60;0.40;;;;;;;22.84;48.95;98819.97;6239355;22;20047;-71
2022/08/31 10:19:43;;;;;;;0.40;0.40;;;;;;;22.33;50.17;98816.59;6245203;23;20016;-70
2022/08/31 10:22:21;;;;;;;0.63;0.40;;;;;;;22.34;49.53;98817.41;6220918;23;20026;-70
2022/08/31 10:25:03;;;;;;;0.50;0.50;;;;;;;21.88;50.79;98824.75;6242411;23;20401;-70
2022/08/31 10:27:37;;;;;;;1.83;1.00;;;;;;;23.14;48.14;98832.22;6246775;22;20359;-71
2022/08/31 10:30:06;;;;;;;0.40;0.40;;;;;;;24.13;44.68;98823.44;6243757;22;20027;-69
2022/08/31 10:32:38;;;;;;;1.17;0.50;;;;;;;23.29;46.22;98828.41;6216881;23;20066;-70
2022/08/31 10:35:11;;;;;;;0.52;0.40;;;;;;;22.55;48.12;98816.88;6235046;23;20024;-70
2022/08/31 10:37:48;;;;;;;0.47;0.47;;;;;;;21.91;49.59;98820.41;6247723;22;20035;-70
2022/08/31 10:40:20;;;;;;;0.85;0.50;;;;;;;21.61;50.66;98821.09;6237055;22;20016;-70
2022/08/31 10:42:58;;;;;;;0.50;0.50;;;;;;;21.77;49.63;98840.47;6246434;22;20035;-71
2022/08/31 10:45:27;;;;;;;0.60;0.60;;;;;;;21.61;50.61;98835.00;6236262;22;20500;-69
2022/08/31 10:47:55;;;;;;;0.95;0.60;;;;;;;22.08;49.04;98841.31;6235178;23;20031;-70
2022/08/31 10:50:29;;;;;;;0.40;0.40;;;;;;;22.97;47.12;98828.88;6236694;22;20019;-70
2022/08/31 10:53:06;;;;;;;0.50;0.50;;;;;;;23.71;45.19;98845.06;6235115;22;20044;-69
2022/08/31 10:55:45;;;;;;;0.30;0.30;;;;;;;22.90;46.72;98835.19;6232575;22;20399;-70
2022/08/31 10:58:22;;;;;;;0.35;0.35;;;;;;;22.09;49.14;98829.00;6231106;22;20024;-70
2022/08/31 11:01:12;;;;;;;1.65;0.60;;;;;;;22.01;50.04;98847.56;6243371;22;20024;-69
2022/08/31 11:04:10;;;;;;;1.13;1.13;;;;;;;22.86;48.54;98847.47;6243942;22;20024;-69
2022/08/31 11:06:40;;;;;;;0.70;0.70;;;;;;;24.21;45.63;98842.63;6242993;22;20023;-70
2022/08/31 11:09:14;;;;;;;0.70;0.70;;;;;;;24.46;44.46;98849.53;6235985;22;20046;-70
2022/08/31 11:11:45;;;;;;;0.63;0.50;;;;;;;23.35;47.01;98835.22;6232239;22;20103;-69
2022/08/31 11:15:01;;;;;;;0.40;0.40;;;;;;;22.87;48.11;98837.91;6236080;23;20510;-73
2022/08/31 11:17:46;;;;;;;0.35;0.35;;;;;;;21.65;51.40;98845.06;6146212;23;20504;-73
2022/08/31 11:20:46;;;;;;;1.08;0.47;;;;;;;20.88;54.10;98835.75;6244507;23;20495;-73
2022/08/31 11:23:42;;;;;;;1.02;0.43;;;;;;;20.25;58.04;98841.25;6216044;23;20416;-70
2022/08/31 11:26:49;;;;;;;0.85;0.57;;;;;;;19.72;60.01;98864.56;6232848;22;20070;-69
2022/08/31 11:29:31;;;;;;;1.35;0.40;;;;;;;19.81;58.86;98861.63;6229815;22;20051;-69
2022/08/31 11:32:02;;;;;;;0.50;0.50;;;;;;;20.15;57.71;98850.94;6239692;22;20103;-69
2022/08/31 11:34:46;;;;;;;0.57;0.57;;;;;;;20.49;56.21;98847.66;6241993;23;20483;-69
2022/08/31 11:37:32;;;;;;;2.30;0.90;;;;;;;21.25;52.19;98810.22;6231888;22;20028;-74
2022/08/31 11:39:59;;;;;;;2.00;1.50;;;;;;;21.95;50.03;98843.53;6226355;23;20649;-73
2022/08/31 11:42:59;;;;;;;0.95;0.60;;;;;;;22.62;48.29;98860.72;6238853;22;20020;-74
2022/08/31 11:45:30;;;;;;;0.90;0.50;;;;;;;21.81;49.57;98832.97;6235341;22;20035;-73
2022/08/31 11:47:56;;;;;;;0.55;0.50;;;;;;;21.17;50.52;98850.19;6243893;22;20483;-73
2022/08/31 11:51:00;;;;;;;0.60;0.60;;;;;;;21.08;50.53;98840.13;6234385;23;20117;-73
2022/08/31 11:53:34;;;;;;;0.75;0.75;;;;;;;21.71;49.65;98851.09;6236581;23;20299;-73
2022/08/31 11:56:02;;;;;;;0.60;0.60;;;;;;;22.16;48.52;98848.56;6245484;22;20016;-74
2022/08/31 11:58:33;;;;;;;0.40;0.40;;;;;;;22.30;48.22;98841.59;6233832;23;20024;-74
2022/08/31 12:01:43;;;;;;;0.47;0.43;;;;;;;21.72;50.28;98838.81;6231374;22;20016;-73
2022/08/31 12:04:45;;;;;;;0.73;0.40;;;;;;;20.74;53.56;98841.81;6181559;22;20397;-73
2022/08/31 12:07:14;;;;;;;3.20;0.85;;;;;;;20.02;55.92;98855.78;6232904;22;20452;-73
2022/08/31 12:10:21;;;;;;;0.30;0.30;;;;;;;19.63;56.94;98856.44;6233596;22;20020;-69
2022/08/31 12:13:17;;;;;;;0.20;0.20;;;;;;;19.38;58.10;98847.53;6245069;22;20036;-70